Walker Valley, NY (12588)

3:58 AM EDT on September 02, 2015 (GMT -0400)
Ice Caves Mountain | | Change Station
CLOSE
Current Station
Personal Weather Station
Location: Pine Bush, NY
Elevation: 1509 ft
Nearby Weather Stations

Elev 1509 ft 41.66 °N, 74.38 °W | Updated 1 minute ago

Clear
Clear
67.8 °F
Feels Like 67.8 °F
N
2.7
Wind Variable Wind from NNW

Today
High -- | Low -- °F
--% Chance of Precip.
Yesterday
High -- | Low -- °F
Precip. -- in
6:24 AM 7:29 PM
Waning Gibbous, 82% visible
Pressure 30.03 in
Visibility 5.0 miles
Clouds Few 300 ft
Dew Point 62 °F
Humidity 82%
Rainfall 0.00 in
Snow Depth Not available.
UV 0 out of 12
Pollen 10.00 out of 12
Air Quality Not available.
Flu Activity Not available.
METAR KMGJ 020754Z AUTO 00000KT 5SM BR FEW003 16/16 A3003 RMK AO2 SLP168 T01610156 TSNO $
Pressure 30.03 in
Visibility 5.0 miles
Clouds Few 300 ft
Dew Point 62 °F
Humidity 82%
Rainfall 0.00 in
Snow Depth Not available.
UV 0 out of 12
Pollen 10.00 out of 12
Air Quality Not available.
Flu Activity Not available.
METAR KMGJ 020754Z AUTO 00000KT 5SM BR FEW003 16/16 A3003 RMK AO2 SLP168 T01610156 TSNO $

10-Day Weather Forecast

×

Almanac

Astronomy

Sep. 02, 2015 Rise Set
Actual Time
Civil Twilight
Nautical Twilight
Astronomical Twilight
Moon
Length of Visible Light
Length of Day
Tomorrow will be .
, % of the Moon is Illuminated

Today's Extremes

State Highs State Lows

Community

WunderPhotos

Upload Photos

1,851,723 photos uploaded!

WunderBlogs® & News

Nearby

Air Quality

  Air Quality AQ Index Pollutant
Not available.

Snow Depth

Station Depth Elevation

Earthquake Activity

City Distance Mag. Time & Date
Minimum magnitude displayed is 2.5.

Coastal Water Temperatures

Place Temperature

Stations

Nearby Weather Stations

Station Location Temp. Windchill Dew Point Humidity Wind Precip. Elev Updated Type